Time;durP1;ratioP1;P1;durP2;ratioP2;P2;SDS_P1;SDS_P2;PMS_P1;PMS_P2;Temp;Humidity;BMP_temperature;BMP_pressure;BME280_temperature;BME280_humidity;BME280_pressure;Samples;Min_cycle;Max_cycle;Signal;HPM_P1;HPM_P2
2023/01/13 00:02:26;;;;;;;13.88;5.88;;;;;;;8.14;100.00;99090.53;5038567;28;20032;-66
2023/01/13 00:04:52;;;;;;;10.77;5.88;;;;;;;8.09;100.00;99098.44;5038363;28;20029;-67
2023/01/13 00:07:17;;;;;;;11.23;6.13;;;;;;;8.05;100.00;99072.34;5020580;28;20518;-68
2023/01/13 00:09:42;;;;;;;13.55;6.28;;;;;;;8.18;100.00;99077.53;5019942;28;20510;-67
2023/01/13 00:12:08;;;;;;;11.50;5.35;;;;;;;8.14;100.00;99060.25;5019402;28;20025;-67
2023/01/13 00:14:34;;;;;;;13.32;5.43;;;;;;;8.14;100.00;99044.19;5035175;28;20111;-66
2023/01/13 00:17:00;;;;;;;11.57;6.22;;;;;;;8.07;100.00;99025.50;5019432;28;20104;-67
2023/01/13 00:19:25;;;;;;;11.15;5.55;;;;;;;8.03;100.00;99027.03;5019167;28;20444;-67
2023/01/13 00:21:51;;;;;;;10.85;5.68;;;;;;;8.23;100.00;99038.28;5019872;28;20033;-67
2023/01/13 00:24:17;;;;;;;8.43;5.15;;;;;;;8.21;100.00;99032.34;5019258;28;20068;-67
2023/01/13 00:26:43;;;;;;;8.18;5.15;;;;;;;8.21;100.00;99028.84;5019952;28;20033;-67
2023/01/13 00:29:08;;;;;;;8.15;5.03;;;;;;;8.07;100.00;99011.31;5036945;28;20099;-67
2023/01/13 00:31:34;;;;;;;8.57;4.43;;;;;;;8.21;100.00;99032.34;5019486;28;20029;-67
2023/01/13 00:34:00;;;;;;;7.00;4.35;;;;;;;8.26;100.00;99026.31;5036119;28;20048;-67
2023/01/13 00:36:26;;;;;;;7.43;4.40;;;;;;;8.24;100.00;99013.16;5037238;28;20472;-67
2023/01/13 00:38:51;;;;;;;8.40;4.88;;;;;;;8.25;100.00;99005.91;5019484;28;20099;-67
2023/01/13 00:41:20;;;;;;;7.10;4.53;;;;;;;8.25;100.00;99005.91;5019749;28;20051;-67
2023/01/13 00:43:46;;;;;;;6.05;4.35;;;;;;;8.33;100.00;99008.25;5019609;28;20034;-67
2023/01/13 00:46:14;;;;;;;5.88;4.75;;;;;;;8.23;100.00;98991.91;5020742;28;20025;-67
2023/01/13 00:48:40;;;;;;;8.20;4.07;;;;;;;8.16;100.00;98965.22;5038799;28;20029;-67
2023/01/13 00:51:13;;;;;;;5.90;4.00;;;;;;;8.23;100.00;98975.84;5004155;28;20048;-67
2023/01/13 00:53:42;;;;;;;5.95;3.80;;;;;;;8.21;100.00;98972.56;5038109;28;20022;-67
2023/01/13 00:56:13;;;;;;;4.75;3.80;;;;;;;8.08;100.00;98936.09;5038375;28;20113;-67
2023/01/13 00:58:39;;;;;;;4.25;3.40;;;;;;;8.18;100.00;98949.75;5038895;28;20095;-68
2023/01/13 01:01:07;;;;;;;5.72;3.58;;;;;;;8.13;100.00;98954.16;5037938;28;20033;-67
2023/01/13 01:03:33;;;;;;;5.53;3.92;;;;;;;8.15;100.00;98955.56;5038180;28;20029;-67
2023/01/13 01:06:14;;;;;;;4.90;3.58;;;;;;;8.18;100.00;98956.97;5037770;28;20036;-67
2023/01/13 01:08:40;;;;;;;5.50;4.20;;;;;;;8.21;100.00;98951.97;5019353;28;20131;-67
2023/01/13 01:11:11;;;;;;;4.57;3.90;;;;;;;8.20;100.00;98958.34;5019022;28;20187;-67
2023/01/13 01:13:38;;;;;;;5.47;4.00;;;;;;;8.14;100.00;98950.41;5037294;28;20484;-67
2023/01/13 01:16:05;;;;;;;4.35;3.42;;;;;;;8.24;100.00;98950.69;5035344;28;20059;-67
2023/01/13 01:18:33;;;;;;;4.18;3.38;;;;;;;8.23;100.00;98947.19;5019551;28;20030;-67
2023/01/13 01:20:59;;;;;;;4.55;3.08;;;;;;;8.26;100.00;98951.28;5036433;28;20065;-67
2023/01/13 01:23:24;;;;;;;3.05;2.75;;;;;;;8.24;100.00;98948.84;5036945;28;20041;-67
2023/01/13 01:25:50;;;;;;;3.78;2.95;;;;;;;8.23;100.00;98952.53;5036625;28;20022;-67
2023/01/13 01:28:18;;;;;;;3.20;2.63;;;;;;;8.30;100.00;98947.09;5003019;28;20381;-67
2023/01/13 01:30:43;;;;;;;2.80;2.50;;;;;;;8.18;100.00;98919.47;5036984;28;20117;-67
2023/01/13 01:33:09;;;;;;;5.13;2.40;;;;;;;8.35;100.00;98914.25;5019579;28;20065;-67
2023/01/13 01:35:38;;;;;;;3.08;1.75;;;;;;;8.14;100.00;98902.19;5038299;28;20108;-67
2023/01/13 01:38:03;;;;;;;2.35;1.77;;;;;;;8.26;100.00;98911.09;5007207;28;20520;-67
2023/01/13 01:40:29;;;;;;;2.38;1.75;;;;;;;8.32;100.00;98902.13;5040636;28;20037;-66
2023/01/13 01:45:38;;;;;;;4.47;1.60;;;;;;;8.39;100.00;98908.22;5025874;28;20106;-67
2023/01/13 01:48:06;;;;;;;2.13;1.40;;;;;;;8.41;100.00;98898.09;5023327;28;20052;-67
2023/01/13 01:50:32;;;;;;;2.28;1.20;;;;;;;8.51;100.00;98912.75;5040322;28;20029;-67
2023/01/13 01:53:16;;;;;;;3.45;1.30;;;;;;;8.46;100.00;98892.03;5039729;28;20030;-68
2023/01/13 01:55:42;;;;;;;2.17;1.10;;;;;;;8.45;100.00;98904.63;5040327;28;20032;-67
2023/01/13 01:58:21;;;;;;;3.13;1.40;;;;;;;8.59;100.00;98901.72;5039717;28;20017;-67
2023/01/13 02:00:47;;;;;;;2.08;1.27;;;;;;;8.58;100.00;98886.69;5040440;28;20029;-67
2023/01/13 02:03:15;;;;;;;1.60;1.10;;;;;;;8.60;100.00;98890.75;5041040;28;20124;-67
2023/01/13 02:05:40;;;;;;;2.55;1.10;;;;;;;8.39;100.00;98878.75;5041077;28;20029;-67
2023/01/13 02:08:08;;;;;;;2.10;1.50;;;;;;;8.55;100.00;98906.72;5039634;28;20028;-67
2023/01/13 02:10:35;;;;;;;3.15;1.50;;;;;;;8.64;100.00;98904.50;5017121;28;20387;-67
2023/01/13 02:13:04;;;;;;;2.95;1.52;;;;;;;8.56;100.00;98880.72;5037376;28;20025;-67
2023/01/13 02:15:39;;;;;;;5.53;1.60;;;;;;;8.68;100.00;98881.56;5037577;28;20045;-67
2023/01/13 02:18:17;;;;;;;2.17;1.40;;;;;;;8.68;100.00;98886.91;5019935;28;20030;-67
2023/01/13 02:21:20;;;;;;;2.05;1.40;;;;;;;8.66;100.00;98870.25;5038231;28;20136;-67
2023/01/13 02:27:27;;;;;;;2.88;1.90;;;;;;;8.63;100.00;98876.06;5049628;28;20020;-67
2023/01/13 02:32:53;;;;;;;7.03;2.60;;;;;;;8.56;100.00;98838.66;5054846;28;20023;-67
2023/01/13 02:35:23;;;;;;;5.07;2.97;;;;;;;8.70;100.00;98853.44;5049692;28;20029;-67
2023/01/13 02:37:49;;;;;;;7.85;3.38;;;;;;;8.72;100.00;98855.91;5048036;28;20025;-67
2023/01/13 02:40:28;;;;;;;9.38;3.55;;;;;;;8.77;100.00;98861.34;5031418;28;20033;-67
2023/01/13 02:46:05;;;;;;;9.60;4.18;;;;;;;8.82;100.00;98850.75;5044039;28;20063;-67
2023/01/13 02:48:32;;;;;;;12.00;3.90;;;;;;;8.86;100.00;98851.09;5025909;28;20106;-67
2023/01/13 02:51:09;;;;;;;15.18;4.55;;;;;;;8.93;100.00;98847.22;5008827;28;20134;-68
2023/01/13 02:53:40;;;;;;;15.68;4.25;;;;;;;9.00;100.00;98851.66;5043641;28;20024;-68
2023/01/13 02:56:08;;;;;;;14.68;5.13;;;;;;;9.00;100.00;98839.03;5043125;28;20086;-67
2023/01/13 02:58:36;;;;;;;15.75;4.20;;;;;;;9.10;100.00;98838.44;5027255;28;20025;-67
2023/01/13 03:01:02;;;;;;;18.83;4.40;;;;;;;9.11;100.00;98840.09;5042005;28;20187;-67
2023/01/13 03:03:27;;;;;;;24.25;5.05;;;;;;;9.02;100.00;98836.94;5025161;28;20476;-67
2023/01/13 03:06:07;;;;;;;22.98;5.43;;;;;;;9.00;100.00;98832.88;5043213;28;20028;-66
2023/01/13 03:08:41;;;;;;;21.48;5.22;;;;;;;9.07;100.00;98836.22;5043363;28;20028;-68
2023/01/13 03:11:16;;;;;;;28.17;5.63;;;;;;;9.12;100.00;98839.84;5041453;28;20502;-67
2023/01/13 03:14:01;;;;;;;;;;;;;;;9.09;100.00;98842.19;5036600;28;20109;-67
2023/01/13 03:16:49;;;;;;;21.77;5.70;;;;;;;9.17;100.00;98839.13;5024611;28;20272;-67
2023/01/13 03:19:52;;;;;;;24.25;5.30;;;;;;;9.20;100.00;98845.88;5037367;28;20061;-67
2023/01/13 03:22:36;;;;;;;28.40;5.72;;;;;;;9.20;100.00;98825.22;5038173;28;20033;-67
2023/01/13 03:25:04;;;;;;;33.30;6.07;;;;;;;9.26;100.00;98826.94;5038104;28;20113;-67
2023/01/13 03:27:41;;;;;;;23.65;5.70;;;;;;;9.17;100.00;98818.50;5038362;28;20251;-67
2023/01/13 03:30:20;;;;;;;29.45;5.30;;;;;;;9.21;100.00;98820.69;5021119;28;20029;-68
2023/01/13 03:32:52;;;;;;;30.23;5.50;;;;;;;9.36;100.00;98829.03;5020833;28;20039;-68
2023/01/13 03:35:31;;;;;;;30.23;5.28;;;;;;;9.40;100.00;98831.00;5038272;28;20061;-68
2023/01/13 03:38:20;;;;;;;25.77;5.05;;;;;;;9.48;100.00;98829.78;5038570;28;20026;-67
2023/01/13 03:40:53;;;;;;;32.03;4.72;;;;;;;9.55;100.00;98829.66;5038643;28;20099;-67
2023/01/13 03:46:18;;;;;;;30.13;4.85;;;;;;;9.60;100.00;98827.88;5040432;28;20048;-68
2023/01/13 03:48:45;;;;;;;35.80;5.05;;;;;;;9.52;100.00;98827.44;5022776;28;20021;-67
2023/01/13 03:51:17;;;;;;;35.15;5.15;;;;;;;9.51;100.00;98813.22;5020357;28;20030;-67
2023/01/13 03:53:48;;;;;;;38.65;4.90;;;;;;;9.50;100.00;98806.19;5041427;28;20052;-67
2023/01/13 03:56:25;;;;;;;31.70;4.63;;;;;;;9.54;100.00;98814.59;5024614;28;20120;-67
2023/01/13 03:58:52;;;;;;;38.88;5.07;;;;;;;9.49;100.00;98817.19;5024082;28;20036;-67
2023/01/13 04:01:26;;;;;;;40.90;4.40;;;;;;;9.60;100.00;98830.56;5043074;28;20030;-67
2023/01/13 04:04:12;;;;;;;41.78;5.75;;;;;;;9.65;100.00;98835.19;5024379;28;20033;-68
2023/01/13 04:06:54;;;;;;;38.58;4.85;;;;;;;9.64;100.00;98831.72;5042356;28;20025;-67
2023/01/13 04:09:30;;;;;;;34.85;3.97;;;;;;;9.64;100.00;98815.59;5024392;28;20027;-67
2023/01/13 04:11:59;;;;;;;33.90;4.88;;;;;;;9.63;100.00;98823.88;5042036;28;20021;-67
2023/01/13 04:14:27;;;;;;;36.25;5.20;;;;;;;9.64;100.00;98825.53;5024550;28;20029;-67
2023/01/13 04:16:53;;;;;;;41.30;5.30;;;;;;;9.53;100.00;98800.34;5022550;28;20096;-68
2023/01/13 04:19:18;;;;;;;41.15;5.10;;;;;;;9.64;100.00;98822.84;5038151;28;20061;-67
2023/01/13 04:21:44;;;;;;;26.63;4.20;;;;;;;9.65;100.00;98833.31;5021219;28;20030;-68
2023/01/13 04:24:09;;;;;;;34.58;4.53;;;;;;;9.65;100.00;98825.28;5039346;28;20439;-68
2023/01/13 04:26:35;;;;;;;42.13;5.25;;;;;;;9.46;100.00;98801.56;5024075;28;20072;-67
2023/01/13 04:29:00;;;;;;;35.75;4.55;;;;;;;9.46;100.00;98820.34;5022391;28;20017;-67
2023/01/13 04:31:25;;;;;;;44.42;4.70;;;;;;;9.57;100.00;98843.63;5022606;28;20026;-67
2023/01/13 04:33:51;;;;;;;47.17;5.10;;;;;;;9.61;100.00;98845.63;5039856;28;20032;-68
2023/01/13 04:36:18;;;;;;;34.83;4.50;;;;;;;9.63;100.00;98854.25;5039346;28;20025;-67
2023/01/13 04:38:44;;;;;;;43.10;5.35;;;;;;;9.38;100.00;98834.97;5005352;28;20033;-68
2023/01/13 04:41:09;;;;;;;37.58;5.47;;;;;;;9.49;100.00;98862.81;5003928;28;20040;-67
2023/01/13 04:43:34;;;;;;;48.58;5.45;;;;;;;9.56;100.00;98848.19;5004882;28;20036;-68
2023/01/13 04:46:00;;;;;;;42.33;4.80;;;;;;;9.52;100.00;98847.03;5038840;28;20091;-68
2023/01/13 04:48:25;;;;;;;44.35;5.50;;;;;;;9.54;100.00;98857.56;5004931;28;20021;-67
2023/01/13 04:50:51;;;;;;;39.22;5.53;;;;;;;9.49;100.00;98860.94;5039156;28;20064;-68
2023/01/13 04:53:16;;;;;;;33.10;5.30;;;;;;;9.35;100.00;98870.34;5021247;28;20539;-67
2023/01/13 04:55:43;;;;;;;41.95;4.78;;;;;;;9.34;100.00;98872.22;5021652;28;20140;-67
2023/01/13 04:58:10;;;;;;;47.70;5.25;;;;;;;9.27;100.00;98874.22;5021451;28;20065;-67
2023/01/13 05:00:36;;;;;;;41.17;4.72;;;;;;;9.26;100.00;98866.41;5005984;28;20029;-68
2023/01/13 05:03:02;;;;;;;47.03;5.55;;;;;;;9.15;100.00;98881.47;5017392;28;20043;-68
2023/01/13 05:05:29;;;;;;;41.38;5.13;;;;;;;9.22;100.00;98882.16;5019705;28;20041;-67
2023/01/13 05:07:55;;;;;;;38.72;4.68;;;;;;;9.00;100.00;98859.69;5038682;28;20172;-68
2023/01/13 05:10:20;;;;;;;43.08;5.40;;;;;;;9.19;100.00;98866.53;5039572;28;20080;-69
2023/01/13 05:18:15;;;;;;;42.08;4.40;;;;;;;8.96;100.00;98853.19;5036829;28;20076;-68
2023/01/13 05:20:41;;;;;;;41.67;4.53;;;;;;;8.70;100.00;98831.16;5019038;28;20193;-68
2023/01/13 05:25:51;;;;;;;44.23;6.17;;;;;;;8.79;100.00;98861.94;5037980;28;20036;-68
2023/01/13 05:28:16;;;;;;;35.58;4.15;;;;;;;8.66;100.00;98873.72;5037538;28;20030;-68
2023/01/13 05:30:45;;;;;;;34.70;4.97;;;;;;;8.74;100.00;98869.06;5004061;28;20180;-68
2023/01/13 05:33:12;;;;;;;34.40;4.20;;;;;;;8.70;100.00;98874.06;5038162;28;20021;-68
2023/01/13 05:35:42;;;;;;;33.28;4.57;;;;;;;8.73;100.00;98876.28;5004457;28;20097;-68
2023/01/13 05:38:08;;;;;;;50.20;5.03;;;;;;;8.69;100.00;98859.84;5020276;28;20029;-68
2023/01/13 05:43:21;;;;;;;50.95;5.05;;;;;;;8.60;100.00;98865.81;5038734;28;20044;-68
2023/01/13 05:46:00;;;;;;;40.22;4.68;;;;;;;8.56;100.00;98867.31;5039653;28;20029;-68
2023/01/13 05:48:36;;;;;;;38.03;4.60;;;;;;;8.49;100.00;98877.34;5039166;28;20022;-68
2023/01/13 05:51:03;;;;;;;49.63;4.65;;;;;;;8.53;100.00;98867.78;5038631;28;20040;-68
2023/01/13 05:53:29;;;;;;;41.67;4.50;;;;;;;8.50;100.00;98873.63;5021390;28;20124;-68
2023/01/13 05:55:55;;;;;;;45.80;4.78;;;;;;;8.55;100.00;98881.78;5021913;28;20041;-67
2023/01/13 05:58:23;;;;;;;44.42;4.97;;;;;;;8.52;100.00;98877.69;5022663;28;20018;-67
2023/01/13 06:00:49;;;;;;;45.40;5.20;;;;;;;8.48;100.00;98873.84;5041193;28;20026;-68
2023/01/13 06:03:18;;;;;;;41.30;4.78;;;;;;;8.43;100.00;98879.91;5021339;28;20048;-68
2023/01/13 06:05:44;;;;;;;41.88;5.30;;;;;;;8.53;100.00;98873.16;5006221;28;20030;-69
2023/01/13 06:08:09;;;;;;;50.70;5.03;;;;;;;8.51;100.00;98876.06;5039997;28;20014;-68
2023/01/13 06:10:35;;;;;;;50.78;5.47;;;;;;;8.52;100.00;98876.88;5040009;28;20034;-69
2023/01/13 06:13:01;;;;;;;45.17;4.70;;;;;;;8.52;100.00;98888.41;5038777;28;20041;-69
2023/01/13 06:15:27;;;;;;;45.03;5.30;;;;;;;8.41;100.00;98879.34;5022339;28;20033;-68
2023/01/13 06:17:52;;;;;;;40.20;5.05;;;;;;;8.46;100.00;98887.47;5023058;28;20026;-68
2023/01/13 06:20:19;;;;;;;39.42;4.75;;;;;;;8.44;100.00;98888.75;5023055;28;20054;-68
2023/01/13 06:22:47;;;;;;;40.03;5.22;;;;;;;8.39;100.00;98881.41;5044031;28;20060;-68
2023/01/13 06:25:24;;;;;;;36.58;4.88;;;;;;;8.50;100.00;98895.06;5044662;28;20467;-69
2023/01/13 06:27:51;;;;;;;33.83;4.20;;;;;;;8.36;100.00;98886.41;5044998;28;20013;-69
2023/01/13 06:30:16;;;;;;;36.65;4.03;;;;;;;8.54;100.00;98898.91;5008750;28;20025;-70
2023/01/13 06:32:47;;;;;;;32.63;4.80;;;;;;;8.49;100.00;98893.44;5006089;28;20491;-67
2023/01/13 06:35:17;;;;;;;35.38;3.95;;;;;;;8.56;100.00;98905.66;5025292;28;20033;-68
2023/01/13 06:37:44;;;;;;;32.13;3.83;;;;;;;8.51;100.00;98910.09;5027811;28;20455;-67
2023/01/13 06:40:12;;;;;;;29.45;3.67;;;;;;;8.53;100.00;98908.00;5026589;28;20052;-67
2023/01/13 06:45:25;;;;;;;34.45;4.88;;;;;;;8.57;100.00;98915.34;5027940;28;20044;-69
2023/01/13 06:47:50;;;;;;;33.15;4.68;;;;;;;8.62;100.00;98920.03;5026443;28;20088;-67
2023/01/13 06:50:17;;;;;;;29.67;3.80;;;;;;;8.56;100.00;98912.91;5044531;28;20087;-68
2023/01/13 06:52:42;;;;;;;32.45;4.15;;;;;;;8.42;100.00;98891.69;5039793;28;20036;-68
2023/01/13 06:55:08;;;;;;;28.98;3.67;;;;;;;8.54;100.00;98901.59;5005138;28;20097;-67
2023/01/13 06:57:33;;;;;;;33.70;4.82;;;;;;;8.44;100.00;98886.06;5005567;28;20030;-67
2023/01/13 06:59:59;;;;;;;33.38;4.53;;;;;;;8.62;100.00;98906.63;5006387;28;20026;-67
2023/01/13 07:02:26;;;;;;;38.83;4.85;;;;;;;8.61;100.00;98907.63;5023185;28;20053;-66
2023/01/13 07:04:51;;;;;;;38.55;4.20;;;;;;;8.65;100.00;98908.84;5022833;28;20026;-66
2023/01/13 07:07:17;;;;;;;36.60;5.90;;;;;;;8.62;100.00;98911.97;5006003;28;20029;-66
2023/01/13 07:09:42;;;;;;;44.83;5.15;;;;;;;8.66;100.00;98907.78;5007902;28;20048;-66
2023/01/13 07:12:08;;;;;;;39.97;4.55;;;;;;;8.72;100.00;98908.72;5009280;28;20425;-67
2023/01/13 07:17:23;;;;;;;38.60;5.25;;;;;;;8.72;100.00;98901.47;5027646;28;20458;-67
2023/01/13 07:19:50;;;;;;;43.97;5.15;;;;;;;8.80;100.00;98903.78;5009841;28;20108;-67
2023/01/13 07:22:16;;;;;;;46.28;5.68;;;;;;;8.79;100.00;98904.84;5042554;28;20026;-69
2023/01/13 07:24:41;;;;;;;45.28;5.65;;;;;;;8.79;100.00;98901.34;5024062;28;20026;-68
2023/01/13 07:27:06;;;;;;;44.35;5.43;;;;;;;8.83;100.00;98905.19;5024174;28;20431;-67
2023/01/13 07:29:32;;;;;;;54.20;6.38;;;;;;;8.83;100.00;98903.31;5009311;28;20425;-66
2023/01/13 07:31:57;;;;;;;48.83;5.25;;;;;;;8.85;100.00;98903.91;5025578;28;20041;-67
2023/01/13 07:34:22;;;;;;;33.38;4.50;;;;;;;8.84;100.00;98894.25;5043814;28;20603;-67
2023/01/13 07:36:49;;;;;;;41.67;6.05;;;;;;;8.76;100.00;98891.09;5042627;28;20056;-68
2023/01/13 07:39:15;;;;;;;41.80;4.70;;;;;;;8.81;100.00;98893.91;5007076;28;20030;-66
2023/01/13 07:44:24;;;;;;;42.35;5.53;;;;;;;8.84;100.00;98899.63;5043169;28;20071;-66
2023/01/13 07:46:49;;;;;;;40.50;5.18;;;;;;;8.87;100.00;98892.94;5023989;28;20034;-67
2023/01/13 07:49:15;;;;;;;40.25;4.88;;;;;;;8.88;100.00;98895.41;5041196;28;20333;-68
2023/01/13 07:51:40;;;;;;;39.72;5.20;;;;;;;8.83;100.00;98897.97;5006412;28;20030;-67
2023/01/13 07:54:06;;;;;;;28.92;3.75;;;;;;;8.72;100.00;98880.03;5022769;28;20029;-67
2023/01/13 07:56:31;;;;;;;41.13;5.47;;;;;;;8.82;100.00;98890.97;5042350;28;20039;-67
2023/01/13 07:59:00;;;;;;;46.75;5.07;;;;;;;8.87;100.00;98899.16;5043650;28;20057;-68
2023/01/13 08:01:30;;;;;;;54.83;5.93;;;;;;;8.90;100.00;98909.38;5041696;28;20022;-68
2023/01/13 08:03:57;;;;;;;38.85;4.97;;;;;;;8.80;100.00;98895.75;5041807;28;20013;-68
2023/01/13 08:06:23;;;;;;;43.13;5.47;;;;;;;8.87;100.00;98898.31;5021209;28;20349;-67
2023/01/13 08:08:48;;;;;;;44.58;5.88;;;;;;;8.85;100.00;98895.88;5040890;28;20029;-68
2023/01/13 08:11:14;;;;;;;42.33;5.88;;;;;;;8.88;100.00;98887.38;5040392;28;20021;-69
2023/01/13 08:13:39;;;;;;;48.90;5.53;;;;;;;8.93;100.00;98892.81;5025575;28;20033;-67
2023/01/13 08:16:07;;;;;;;50.03;5.75;;;;;;;8.96;100.00;98901.47;5021465;28;20416;-67
2023/01/13 08:18:34;;;;;;;50.30;6.00;;;;;;;8.97;100.00;98895.03;5040748;28;20059;-67
2023/01/13 08:21:05;;;;;;;44.95;6.25;;;;;;;9.03;100.00;98892.22;5042688;28;20061;-67
2023/01/13 08:23:31;;;;;;;49.33;7.18;;;;;;;9.05;100.00;98889.31;5041848;28;20391;-66
2023/01/13 08:26:05;;;;;;;54.53;7.15;;;;;;;9.12;100.00;98890.81;5022058;28;20044;-67
2023/01/13 08:28:31;;;;;;;53.95;6.28;;;;;;;9.08;100.00;98897.72;5021510;28;20112;-67
2023/01/13 08:31:01;;;;;;;53.00;7.03;;;;;;;9.09;100.00;98901.22;5006554;28;20088;-68
2023/01/13 08:33:27;;;;;;;54.63;7.03;;;;;;;9.17;100.00;98899.00;5038995;28;20047;-67
2023/01/13 08:35:55;;;;;;;52.47;7.10;;;;;;;9.12;100.00;98881.97;5006437;28;20029;-68
2023/01/13 08:38:21;;;;;;;58.25;7.05;;;;;;;9.18;100.00;98889.06;5037862;28;20085;-67
2023/01/13 08:40:47;;;;;;;58.35;6.78;;;;;;;9.16;100.00;98896.53;5020155;28;20507;-68
2023/01/13 08:43:12;;;;;;;71.25;8.15;;;;;;;9.08;100.00;98875.44;5020497;28;20033;-67
2023/01/13 08:45:37;;;;;;;70.00;8.02;;;;;;;9.21;100.00;98896.66;5037056;28;20085;-68
2023/01/13 08:48:03;;;;;;;51.63;7.20;;;;;;;9.21;100.00;98891.28;5020839;28;20033;-67
2023/01/13 08:50:29;;;;;;;58.00;8.23;;;;;;;9.18;100.00;98886.38;5039279;28;20017;-67
2023/01/13 08:52:54;;;;;;;62.05;8.35;;;;;;;9.23;100.00;98891.84;5037183;28;20369;-67
2023/01/13 08:55:20;;;;;;;52.58;7.68;;;;;;;9.24;100.00;98900.69;5039591;28;20029;-68
2023/01/13 08:57:45;;;;;;;62.28;7.68;;;;;;;9.13;100.00;98879.03;5005106;28;20041;-67
2023/01/13 09:00:12;;;;;;;69.85;9.20;;;;;;;9.22;100.00;98895.59;5003624;28;20022;-69
2023/01/13 09:02:37;;;;;;;61.97;7.18;;;;;;;9.23;100.00;98893.72;4987603;28;20071;-68
2023/01/13 09:05:06;;;;;;;73.32;8.73;;;;;;;9.31;100.00;98898.72;5037352;28;20037;-67
2023/01/13 09:07:32;;;;;;;66.25;8.10;;;;;;;9.26;100.00;98902.09;5021380;28;20037;-66
2023/01/13 09:09:58;;;;;;;65.85;8.18;;;;;;;9.34;100.00;98907.13;5021893;28;20025;-68
2023/01/13 09:15:08;;;;;;;69.57;9.02;;;;;;;9.37;100.00;98892.38;5012088;28;20064;-67
2023/01/13 09:17:34;;;;;;;64.03;7.82;;;;;;;9.35;100.00;98903.38;5018798;28;20068;-67
2023/01/13 09:19:59;;;;;;;61.25;7.93;;;;;;;9.37;100.00;98895.91;5040315;28;20046;-66
2023/01/13 09:22:28;;;;;;;61.58;7.32;;;;;;;9.34;100.00;98893.69;5040733;28;20459;-68
2023/01/13 09:24:54;;;;;;;55.40;7.55;;;;;;;9.29;100.00;98907.00;5040558;28;20064;-68
2023/01/13 09:27:20;;;;;;;62.75;8.27;;;;;;;9.39;100.00;98901.84;5041004;28;20091;-67
2023/01/13 09:29:46;;;;;;;53.85;8.15;;;;;;;9.24;100.00;98890.81;5042014;28;20109;-66
2023/01/13 09:32:12;;;;;;;67.68;7.88;;;;;;;9.41;100.00;98899.72;5024466;28;20116;-67
2023/01/13 09:37:22;;;;;;;66.93;8.00;;;;;;;9.35;100.00;98886.44;5026465;28;20049;-68
2023/01/13 09:39:47;;;;;;;64.07;8.00;;;;;;;9.33;100.00;98886.66;5004652;28;20033;-67
2023/01/13 09:45:43;;;;;;;47.70;6.97;;;;;;;9.40;100.00;98891.91;5040287;28;20064;-67
2023/01/13 09:48:18;;;;;;;51.35;6.82;;;;;;;9.44;100.00;98893.09;5022594;28;20021;-68
2023/01/13 09:51:05;;;;;;;59.00;7.95;;;;;;;9.36;100.00;98894.25;5021180;28;20042;-69
2023/01/13 09:53:38;;;;;;;55.25;6.82;;;;;;;9.35;100.00;98892.63;5039387;28;20036;-67
2023/01/13 09:56:04;;;;;;;58.90;7.38;;;;;;;9.29;100.00;98892.75;5038807;28;20026;-67
2023/01/13 09:58:31;;;;;;;65.10;7.13;;;;;;;9.36;100.00;98885.38;5043680;28;20430;-68
2023/01/13 10:01:15;;;;;;;75.75;7.82;;;;;;;9.29;100.00;98896.25;5023747;28;20099;-67
2023/01/13 10:03:41;;;;;;;58.53;7.38;;;;;;;9.34;100.00;98887.50;5024044;28;20021;-67
2023/01/13 10:06:09;;;;;;;63.42;7.63;;;;;;;9.44;100.00;98892.25;5040218;28;20116;-66
2023/01/13 10:08:43;;;;;;;67.70;7.32;;;;;;;9.40;100.00;98894.59;5040596;28;20029;-67
2023/01/13 10:14:19;;;;;;;60.60;7.15;;;;;;;9.50;100.00;98884.03;5009683;28;20048;-68
2023/01/13 10:17:06;;;;;;;49.55;6.28;;;;;;;9.54;100.00;98876.34;5040564;28;20029;-68
2023/01/13 10:19:39;;;;;;;49.55;7.35;;;;;;;9.56;100.00;98876.91;5023207;28;20067;-69
2023/01/13 10:22:22;;;;;;;48.70;6.63;;;;;;;9.61;100.00;98877.03;5040308;28;20029;-69
2023/01/13 10:25:23;;;;;;;44.88;6.85;;;;;;;9.59;100.00;98871.88;5037835;28;20075;-68
2023/01/13 10:27:51;;;;;;;43.58;5.20;;;;;;;9.57;100.00;98871.31;5041366;28;20075;-68
2023/01/13 10:30:20;;;;;;;57.25;6.82;;;;;;;9.56;100.00;98866.16;5024017;28;20060;-69
2023/01/13 10:32:51;;;;;;;58.05;7.07;;;;;;;9.60;100.00;98867.31;5041642;28;20029;-68
2023/01/13 10:35:17;;;;;;;46.47;7.30;;;;;;;9.58;100.00;98853.34;5023104;28;20026;-67
2023/01/13 10:37:55;;;;;;;57.50;7.13;;;;;;;9.40;100.00;98836.38;5006809;28;20030;-68
2023/01/13 10:40:21;;;;;;;66.35;9.40;;;;;;;9.72;100.00;98868.09;5041610;28;20482;-68
2023/01/13 10:42:46;;;;;;;45.55;7.15;;;;;;;9.77;100.00;98870.88;5022668;28;20057;-66
2023/01/13 10:45:23;;;;;;;52.72;7.00;;;;;;;9.81;100.00;98855.91;5040768;28;20030;-66
2023/01/13 10:48:06;;;;;;;55.67;7.43;;;;;;;9.78;100.00;98861.75;5041384;28;20025;-66
2023/01/13 10:50:35;;;;;;;53.95;8.45;;;;;;;9.69;100.00;98865.06;5041353;28;20337;-66
2023/01/13 10:53:14;;;;;;;42.35;6.38;;;;;;;9.73;100.00;98863.53;5040853;28;20044;-68
2023/01/13 10:55:40;;;;;;;53.85;6.40;;;;;;;9.74;100.00;98865.19;5040586;28;20045;-67
2023/01/13 10:58:18;;;;;;;49.05;6.15;;;;;;;9.64;100.00;98857.75;5041272;28;20126;-67
2023/01/13 11:00:44;;;;;;;41.80;6.85;;;;;;;9.71;100.00;98853.03;5024815;28;20043;-68
2023/01/13 11:03:44;;;;;;;52.53;6.32;;;;;;;9.73;100.00;98850.91;5044418;28;20093;-68
2023/01/13 11:06:21;;;;;;;43.80;7.57;;;;;;;9.60;100.00;98822.50;5046829;28;20025;-68
2023/01/13 11:08:49;;;;;;;51.22;6.70;;;;;;;9.67;100.00;98854.59;5040229;28;20025;-68
2023/01/13 11:11:42;;;;;;;50.72;6.13;;;;;;;9.82;100.00;98851.34;5040259;28;20052;-68
2023/01/13 11:14:38;;;;;;;43.90;6.10;;;;;;;9.86;100.00;98849.78;5022779;28;20484;-68
2023/01/13 11:17:22;;;;;;;48.28;6.10;;;;;;;9.71;100.00;98834.25;5043310;28;20435;-69
2023/01/13 11:19:58;;;;;;;50.38;6.47;;;;;;;9.78;100.00;98850.19;5025436;28;20111;-68
2023/01/13 11:22:32;;;;;;;44.90;6.03;;;;;;;9.85;99.98;98846.28;5040154;28;20029;-67
2023/01/13 11:25:04;;;;;;;46.35;5.57;;;;;;;9.77;99.62;98829.78;5043308;28;20048;-66
2023/01/13 11:27:41;;;;;;;45.70;6.47;;;;;;;9.81;99.67;98845.16;5043082;28;20052;-67
2023/01/13 11:30:25;;;;;;;53.22;7.40;;;;;;;9.91;99.37;98827.59;5042428;28;20060;-67
2023/01/13 11:33:10;;;;;;;54.28;7.15;;;;;;;10.03;99.08;98831.00;5038016;28;20017;-67
2023/01/13 11:35:44;;;;;;;;;;;;;;;10.08;98.65;98831.91;5022934;28;20091;-67
2023/01/13 11:38:27;;;;;;;49.25;6.45;;;;;;;9.88;99.24;98813.59;5036443;28;19970;-69
2023/01/13 11:40:56;;;;;;;48.88;6.53;;;;;;;9.94;99.27;98827.09;5036852;28;20021;-68
2023/01/13 11:44:02;;;;;;;42.53;6.40;;;;;;;9.83;100.00;98824.25;5022340;28;20033;-67
2023/01/13 11:46:28;;;;;;;43.40;6.13;;;;;;;9.78;100.00;98823.34;4977945;28;20331;-68
2023/01/13 11:48:55;;;;;;;49.53;6.40;;;;;;;9.74;100.00;98828.38;4995854;28;20087;-67
2023/01/13 11:51:36;;;;;;;52.65;6.03;;;;;;;9.78;99.67;98829.53;5021981;28;20049;-66
2023/01/13 11:54:26;;;;;;;39.20;5.53;;;;;;;9.71;100.00;98823.50;5040176;28;20094;-67
2023/01/13 11:57:01;;;;;;;44.55;5.88;;;;;;;9.80;99.87;98827.44;5022232;28;20072;-69
2023/01/13 11:59:55;;;;;;;35.67;6.68;;;;;;;9.67;99.67;98822.34;5020759;28;20032;-70
2023/01/13 12:02:39;;;;;;;31.60;4.93;;;;;;;9.71;99.67;98817.31;5038751;28;20029;-68
2023/01/13 12:05:16;;;;;;;38.00;5.93;;;;;;;9.65;99.91;98794.91;5021374;28;20140;-67
2023/01/13 12:08:24;;;;;;;42.72;6.03;;;;;;;9.52;100.00;98804.09;5020539;28;20463;-67
2023/01/13 12:11:12;;;;;;;31.73;4.63;;;;;;;9.51;100.00;98813.22;5020636;28;20055;-68
2023/01/13 12:13:46;;;;;;;36.55;5.32;;;;;;;9.51;100.00;98809.72;5038343;28;20070;-66
2023/01/13 12:16:25;;;;;;;45.30;6.90;;;;;;;9.51;100.00;98804.34;5038383;28;20369;-67
2023/01/13 12:18:56;;;;;;;44.55;6.05;;;;;;;9.55;100.00;98810.84;5038023;28;20048;-68
2023/01/13 12:21:25;;;;;;;48.58;7.63;;;;;;;9.59;100.00;98803.94;5019896;28;20344;-67
2023/01/13 12:23:58;;;;;;;35.78;6.38;;;;;;;9.53;99.78;98802.22;5037852;28;20033;-67
2023/01/13 12:26:24;;;;;;;40.97;5.70;;;;;;;9.50;100.00;98794.63;5037607;28;20036;-67
2023/01/13 12:29:06;;;;;;;45.97;5.65;;;;;;;9.53;100.00;98794.16;5019747;28;20013;-67